sensor_id;sensor_type;location;lat;lon;timestamp;P1;durP1;ratioP1;P2;durP2;ratioP2
3004;SDS011;1512;51.486;6.610;2023-03-07T00:02:33;9.37;;;6.47;;
3004;SDS011;1512;51.486;6.610;2023-03-07T00:06:45;9.77;;;5.77;;
3004;SDS011;1512;51.486;6.610;2023-03-07T00:10:58;7.70;;;5.70;;
3004;SDS011;1512;51.486;6.610;2023-03-07T00:15:08;7.83;;;5.67;;
3004;SDS011;1512;51.486;6.610;2023-03-07T00:19:17;9.70;;;6.17;;
3004;SDS011;1512;51.486;6.610;2023-03-07T00:23:26;5.57;;;4.70;;
3004;SDS011;1512;51.486;6.610;2023-03-07T00:27:38;4.87;;;4.43;;
3004;SDS011;1512;51.486;6.610;2023-03-07T00:31:47;5.40;;;4.80;;
3004;SDS011;1512;51.486;6.610;2023-03-07T00:35:57;7.10;;;4.40;;
3004;SDS011;1512;51.486;6.610;2023-03-07T00:40:07;6.13;;;5.50;;
3004;SDS011;1512;51.486;6.610;2023-03-07T00:44:17;6.93;;;4.67;;
3004;SDS011;1512;51.486;6.610;2023-03-07T00:48:26;9.90;;;4.57;;
3004;SDS011;1512;51.486;6.610;2023-03-07T00:52:35;5.53;;;4.20;;
3004;SDS011;1512;51.486;6.610;2023-03-07T00:56:44;5.13;;;4.63;;
3004;SDS011;1512;51.486;6.610;2023-03-07T01:00:53;4.43;;;4.03;;
3004;SDS011;1512;51.486;6.610;2023-03-07T01:05:02;5.70;;;4.50;;
3004;SDS011;1512;51.486;6.610;2023-03-07T01:09:12;4.47;;;3.43;;
3004;SDS011;1512;51.486;6.610;2023-03-07T01:13:20;4.87;;;3.83;;
3004;SDS011;1512;51.486;6.610;2023-03-07T01:21:57;6.80;;;4.33;;
3004;SDS011;1512;51.486;6.610;2023-03-07T01:26:05;5.87;;;4.97;;
3004;SDS011;1512;51.486;6.610;2023-03-07T01:30:14;4.37;;;3.80;;
3004;SDS011;1512;51.486;6.610;2023-03-07T01:34:22;6.40;;;5.63;;
3004;SDS011;1512;51.486;6.610;2023-03-07T01:38:31;4.60;;;3.60;;
3004;SDS011;1512;51.486;6.610;2023-03-07T01:42:40;4.37;;;3.00;;
3004;SDS011;1512;51.486;6.610;2023-03-07T01:46:58;4.00;;;3.03;;
3004;SDS011;1512;51.486;6.610;2023-03-07T01:51:07;2.50;;;2.30;;
3004;SDS011;1512;51.486;6.610;2023-03-07T01:55:20;2.67;;;2.47;;
3004;SDS011;1512;51.486;6.610;2023-03-07T01:59:30;3.43;;;2.90;;
3004;SDS011;1512;51.486;6.610;2023-03-07T02:04:02;2.57;;;2.33;;
3004;SDS011;1512;51.486;6.610;2023-03-07T02:08:12;2.47;;;2.27;;
3004;SDS011;1512;51.486;6.610;2023-03-07T02:12:23;3.70;;;3.40;;
3004;SDS011;1512;51.486;6.610;2023-03-07T02:16:31;3.53;;;3.13;;
3004;SDS011;1512;51.486;6.610;2023-03-07T02:25:19;2.93;;;2.70;;
3004;SDS011;1512;51.486;6.610;2023-03-07T02:29:26;3.10;;;2.80;;
3004;SDS011;1512;51.486;6.610;2023-03-07T02:33:34;4.20;;;3.23;;
3004;SDS011;1512;51.486;6.610;2023-03-07T02:37:44;2.93;;;2.60;;
3004;SDS011;1512;51.486;6.610;2023-03-07T02:42:03;4.40;;;3.20;;
3004;SDS011;1512;51.486;6.610;2023-03-07T02:50:28;4.90;;;3.43;;
3004;SDS011;1512;51.486;6.610;2023-03-07T02:54:37;3.50;;;3.07;;
3004;SDS011;1512;51.486;6.610;2023-03-07T02:58:46;3.00;;;2.60;;
3004;SDS011;1512;51.486;6.610;2023-03-07T03:02:54;2.73;;;2.33;;
3004;SDS011;1512;51.486;6.610;2023-03-07T03:11:31;4.23;;;3.33;;
3004;SDS011;1512;51.486;6.610;2023-03-07T03:15:39;4.43;;;3.50;;
3004;SDS011;1512;51.486;6.610;2023-03-07T03:19:48;4.87;;;2.80;;
3004;SDS011;1512;51.486;6.610;2023-03-07T03:23:57;3.23;;;2.93;;
3004;SDS011;1512;51.486;6.610;2023-03-07T03:28:05;3.20;;;2.90;;
3004;SDS011;1512;51.486;6.610;2023-03-07T03:32:14;3.03;;;2.73;;
3004;SDS011;1512;51.486;6.610;2023-03-07T03:36:23;3.97;;;3.00;;
3004;SDS011;1512;51.486;6.610;2023-03-07T03:40:32;3.57;;;3.23;;
3004;SDS011;1512;51.486;6.610;2023-03-07T03:44:42;2.73;;;2.33;;
3004;SDS011;1512;51.486;6.610;2023-03-07T03:48:52;5.10;;;3.27;;
3004;SDS011;1512;51.486;6.610;2023-03-07T03:53:01;4.10;;;3.40;;
3004;SDS011;1512;51.486;6.610;2023-03-07T03:57:10;3.60;;;2.97;;
3004;SDS011;1512;51.486;6.610;2023-03-07T04:01:21;4.03;;;3.30;;
3004;SDS011;1512;51.486;6.610;2023-03-07T04:05:32;4.20;;;3.43;;
3004;SDS011;1512;51.486;6.610;2023-03-07T04:09:41;4.03;;;3.57;;
3004;SDS011;1512;51.486;6.610;2023-03-07T04:13:50;5.03;;;3.60;;
3004;SDS011;1512;51.486;6.610;2023-03-07T04:17:58;4.20;;;3.80;;
3004;SDS011;1512;51.486;6.610;2023-03-07T04:22:07;7.00;;;4.03;;
3004;SDS011;1512;51.486;6.610;2023-03-07T04:26:17;4.53;;;3.53;;
3004;SDS011;1512;51.486;6.610;2023-03-07T04:30:26;8.50;;;3.93;;
3004;SDS011;1512;51.486;6.610;2023-03-07T04:34:34;8.53;;;3.90;;
3004;SDS011;1512;51.486;6.610;2023-03-07T04:38:43;4.53;;;3.80;;
3004;SDS011;1512;51.486;6.610;2023-03-07T04:42:53;4.10;;;3.70;;
3004;SDS011;1512;51.486;6.610;2023-03-07T04:47:02;4.83;;;4.07;;
3004;SDS011;1512;51.486;6.610;2023-03-07T04:51:11;5.43;;;3.77;;
3004;SDS011;1512;51.486;6.610;2023-03-07T04:55:20;5.60;;;4.20;;
3004;SDS011;1512;51.486;6.610;2023-03-07T04:59:29;9.60;;;4.00;;
3004;SDS011;1512;51.486;6.610;2023-03-07T05:03:37;6.47;;;4.40;;
3004;SDS011;1512;51.486;6.610;2023-03-07T05:07:46;5.80;;;3.73;;
3004;SDS011;1512;51.486;6.610;2023-03-07T05:11:55;4.87;;;3.73;;
3004;SDS011;1512;51.486;6.610;2023-03-07T05:16:03;3.00;;;2.70;;
3004;SDS011;1512;51.486;6.610;2023-03-07T05:20:12;5.17;;;3.07;;
3004;SDS011;1512;51.486;6.610;2023-03-07T05:24:21;6.83;;;4.30;;
3004;SDS011;1512;51.486;6.610;2023-03-07T05:28:30;4.33;;;3.30;;
3004;SDS011;1512;51.486;6.610;2023-03-07T05:32:39;4.47;;;3.77;;
3004;SDS011;1512;51.486;6.610;2023-03-07T05:36:48;4.70;;;3.57;;
3004;SDS011;1512;51.486;6.610;2023-03-07T05:40:57;6.03;;;3.80;;
3004;SDS011;1512;51.486;6.610;2023-03-07T05:45:06;5.97;;;4.70;;
3004;SDS011;1512;51.486;6.610;2023-03-07T05:49:15;7.75;;;5.12;;
3004;SDS011;1512;51.486;6.610;2023-03-07T05:53:24;10.17;;;6.40;;
3004;SDS011;1512;51.486;6.610;2023-03-07T05:57:33;7.43;;;5.40;;
3004;SDS011;1512;51.486;6.610;2023-03-07T06:01:41;7.40;;;6.10;;
3004;SDS011;1512;51.486;6.610;2023-03-07T06:05:50;7.40;;;5.73;;
3004;SDS011;1512;51.486;6.610;2023-03-07T06:09:59;9.73;;;5.53;;
3004;SDS011;1512;51.486;6.610;2023-03-07T06:14:08;7.93;;;6.40;;
3004;SDS011;1512;51.486;6.610;2023-03-07T06:18:16;7.10;;;5.57;;
3004;SDS011;1512;51.486;6.610;2023-03-07T06:22:25;7.80;;;6.47;;
3004;SDS011;1512;51.486;6.610;2023-03-07T06:26:35;7.20;;;5.53;;
3004;SDS011;1512;51.486;6.610;2023-03-07T06:30:43;7.63;;;6.00;;
3004;SDS011;1512;51.486;6.610;2023-03-07T06:34:52;7.17;;;5.67;;
3004;SDS011;1512;51.486;6.610;2023-03-07T06:39:02;8.13;;;6.17;;
3004;SDS011;1512;51.486;6.610;2023-03-07T06:43:11;10.80;;;6.47;;
3004;SDS011;1512;51.486;6.610;2023-03-07T06:47:19;9.70;;;5.53;;
3004;SDS011;1512;51.486;6.610;2023-03-07T06:51:28;7.93;;;5.50;;
3004;SDS011;1512;51.486;6.610;2023-03-07T06:55:36;8.13;;;5.20;;
3004;SDS011;1512;51.486;6.610;2023-03-07T06:59:45;12.40;;;6.67;;
3004;SDS011;1512;51.486;6.610;2023-03-07T07:03:54;6.53;;;5.57;;
3004;SDS011;1512;51.486;6.610;2023-03-07T07:08:03;12.77;;;6.90;;
3004;SDS011;1512;51.486;6.610;2023-03-07T07:12:11;8.50;;;5.93;;
3004;SDS011;1512;51.486;6.610;2023-03-07T07:16:20;12.07;;;7.00;;
3004;SDS011;1512;51.486;6.610;2023-03-07T07:20:29;10.27;;;6.73;;
3004;SDS011;1512;51.486;6.610;2023-03-07T07:24:37;10.27;;;6.07;;
3004;SDS011;1512;51.486;6.610;2023-03-07T07:28:46;10.00;;;6.13;;
3004;SDS011;1512;51.486;6.610;2023-03-07T07:32:55;7.50;;;5.53;;
3004;SDS011;1512;51.486;6.610;2023-03-07T07:37:04;12.83;;;6.87;;
3004;SDS011;1512;51.486;6.610;2023-03-07T07:41:15;8.43;;;5.20;;
3004;SDS011;1512;51.486;6.610;2023-03-07T07:45:30;6.27;;;5.13;;
3004;SDS011;1512;51.486;6.610;2023-03-07T07:49:39;5.20;;;4.00;;
3004;SDS011;1512;51.486;6.610;2023-03-07T07:53:47;6.00;;;4.67;;
3004;SDS011;1512;51.486;6.610;2023-03-07T07:57:56;7.57;;;4.80;;
3004;SDS011;1512;51.486;6.610;2023-03-07T08:02:05;4.00;;;3.57;;
3004;SDS011;1512;51.486;6.610;2023-03-07T08:06:17;4.53;;;3.50;;
3004;SDS011;1512;51.486;6.610;2023-03-07T08:10:27;3.97;;;3.23;;
3004;SDS011;1512;51.486;6.610;2023-03-07T08:14:37;5.47;;;3.77;;
3004;SDS011;1512;51.486;6.610;2023-03-07T08:23:14;5.30;;;3.87;;
3004;SDS011;1512;51.486;6.610;2023-03-07T08:27:22;4.73;;;3.30;;
3004;SDS011;1512;51.486;6.610;2023-03-07T08:36:00;4.27;;;3.30;;
3004;SDS011;1512;51.486;6.610;2023-03-07T08:40:09;5.73;;;2.87;;
3004;SDS011;1512;51.486;6.610;2023-03-07T08:44:20;3.03;;;2.57;;
3004;SDS011;1512;51.486;6.610;2023-03-07T08:48:28;3.33;;;2.57;;
3004;SDS011;1512;51.486;6.610;2023-03-07T08:52:37;2.97;;;2.53;;
3004;SDS011;1512;51.486;6.610;2023-03-07T08:56:45;2.30;;;2.10;;
3004;SDS011;1512;51.486;6.610;2023-03-07T09:05:22;3.27;;;2.73;;
3004;SDS011;1512;51.486;6.610;2023-03-07T09:09:31;2.00;;;1.80;;
3004;SDS011;1512;51.486;6.610;2023-03-07T09:13:40;2.17;;;1.97;;
3004;SDS011;1512;51.486;6.610;2023-03-07T09:17:50;4.50;;;2.30;;
3004;SDS011;1512;51.486;6.610;2023-03-07T09:21:59;2.73;;;2.00;;
3004;SDS011;1512;51.486;6.610;2023-03-07T09:26:08;2.53;;;2.33;;
3004;SDS011;1512;51.486;6.610;2023-03-07T09:30:16;2.13;;;1.87;;
3004;SDS011;1512;51.486;6.610;2023-03-07T09:34:25;2.90;;;2.60;;
3004;SDS011;1512;51.486;6.610;2023-03-07T09:38:34;3.90;;;2.83;;
3004;SDS011;1512;51.486;6.610;2023-03-07T09:42:54;3.07;;;2.77;;
3004;SDS011;1512;51.486;6.610;2023-03-07T09:51:37;3.40;;;2.87;;
3004;SDS011;1512;51.486;6.610;2023-03-07T09:55:50;2.80;;;2.60;;
3004;SDS011;1512;51.486;6.610;2023-03-07T10:00:04;4.20;;;3.00;;
3004;SDS011;1512;51.486;6.610;2023-03-07T10:04:25;3.70;;;3.00;;
3004;SDS011;1512;51.486;6.610;2023-03-07T10:08:36;3.13;;;2.60;;
3004;SDS011;1512;51.486;6.610;2023-03-07T10:29:56;3.53;;;3.23;;
3004;SDS011;1512;51.486;6.610;2023-03-07T10:34:19;2.70;;;2.50;;
3004;SDS011;1512;51.486;6.610;2023-03-07T10:38:43;3.60;;;2.63;;
3004;SDS011;1512;51.486;6.610;2023-03-07T10:42:53;3.70;;;2.70;;
3004;SDS011;1512;51.486;6.610;2023-03-07T10:47:03;3.40;;;2.97;;
3004;SDS011;1512;51.486;6.610;2023-03-07T10:55:51;5.00;;;2.80;;
3004;SDS011;1512;51.486;6.610;2023-03-07T11:00:11;2.40;;;2.20;;
3004;SDS011;1512;51.486;6.610;2023-03-07T11:04:20;2.90;;;2.63;;
3004;SDS011;1512;51.486;6.610;2023-03-07T11:08:31;3.40;;;3.10;;
3004;SDS011;1512;51.486;6.610;2023-03-07T11:12:47;8.00;;;3.00;;
3004;SDS011;1512;51.486;6.610;2023-03-07T11:16:59;2.90;;;2.70;;
3004;SDS011;1512;51.486;6.610;2023-03-07T11:34:40;3.20;;;2.77;;
3004;SDS011;1512;51.486;6.610;2023-03-07T11:39:07;5.20;;;2.57;;
3004;SDS011;1512;51.486;6.610;2023-03-07T11:43:37;2.53;;;2.33;;
3004;SDS011;1512;51.486;6.610;2023-03-07T11:56:36;5.63;;;2.67;;
3004;SDS011;1512;51.486;6.610;2023-03-07T12:10:48;6.28;;;3.35;;
3004;SDS011;1512;51.486;6.610;2023-03-07T12:23:37;4.60;;;4.20;;
3004;SDS011;1512;51.486;6.610;2023-03-07T12:32:24;4.93;;;2.77;;
3004;SDS011;1512;51.486;6.610;2023-03-07T12:36:37;5.70;;;5.10;;
3004;SDS011;1512;51.486;6.610;2023-03-07T12:40:47;6.27;;;4.37;;
3004;SDS011;1512;51.486;6.610;2023-03-07T12:45:18;4.13;;;3.73;;
3004;SDS011;1512;51.486;6.610;2023-03-07T12:54:10;4.13;;;3.73;;
3004;SDS011;1512;51.486;6.610;2023-03-07T12:58:40;3.40;;;2.97;;
3004;SDS011;1512;51.486;6.610;2023-03-07T13:03:02;7.47;;;4.33;;
3004;SDS011;1512;51.486;6.610;2023-03-07T13:11:25;7.57;;;5.63;;
3004;SDS011;1512;51.486;6.610;2023-03-07T13:24:36;18.03;;;8.83;;
3004;SDS011;1512;51.486;6.610;2023-03-07T13:28:47;4.53;;;3.00;;
3004;SDS011;1512;51.486;6.610;2023-03-07T13:33:00;5.37;;;4.10;;
3004;SDS011;1512;51.486;6.610;2023-03-07T13:37:46;5.47;;;4.03;;
3004;SDS011;1512;51.486;6.610;2023-03-07T13:55:13;6.53;;;4.07;;
3004;SDS011;1512;51.486;6.610;2023-03-07T13:59:21;5.93;;;3.80;;
3004;SDS011;1512;51.486;6.610;2023-03-07T14:03:38;3.67;;;3.13;;
3004;SDS011;1512;51.486;6.610;2023-03-07T14:07:49;3.80;;;2.97;;
3004;SDS011;1512;51.486;6.610;2023-03-07T14:20:53;3.00;;;2.77;;
3004;SDS011;1512;51.486;6.610;2023-03-07T14:29:19;3.87;;;3.23;;
3004;SDS011;1512;51.486;6.610;2023-03-07T14:37:56;4.50;;;3.47;;
3004;SDS011;1512;51.486;6.610;2023-03-07T14:50:45;4.30;;;3.90;;
3004;SDS011;1512;51.486;6.610;2023-03-07T14:54:54;3.43;;;3.17;;
3004;SDS011;1512;51.486;6.610;2023-03-07T14:59:05;3.57;;;3.23;;
3004;SDS011;1512;51.486;6.610;2023-03-07T15:03:18;3.90;;;3.60;;
3004;SDS011;1512;51.486;6.610;2023-03-07T15:07:27;4.33;;;3.33;;
3004;SDS011;1512;51.486;6.610;2023-03-07T15:11:39;5.17;;;3.57;;
3004;SDS011;1512;51.486;6.610;2023-03-07T15:15:52;3.63;;;3.27;;
3004;SDS011;1512;51.486;6.610;2023-03-07T15:20:08;3.87;;;3.50;;
3004;SDS011;1512;51.486;6.610;2023-03-07T15:24:22;4.00;;;3.60;;
3004;SDS011;1512;51.486;6.610;2023-03-07T15:28:37;5.40;;;3.90;;
3004;SDS011;1512;51.486;6.610;2023-03-07T15:32:48;4.70;;;4.30;;
3004;SDS011;1512;51.486;6.610;2023-03-07T15:37:19;4.70;;;3.43;;
3004;SDS011;1512;51.486;6.610;2023-03-07T15:41:30;5.80;;;4.80;;
3004;SDS011;1512;51.486;6.610;2023-03-07T15:45:42;4.73;;;4.33;;
3004;SDS011;1512;51.486;6.610;2023-03-07T15:49:53;6.10;;;5.50;;
3004;SDS011;1512;51.486;6.610;2023-03-07T15:54:17;4.43;;;4.00;;
3004;SDS011;1512;51.486;6.610;2023-03-07T16:03:46;3.20;;;2.80;;
3004;SDS011;1512;51.486;6.610;2023-03-07T16:07:19;5.43;;;2.80;;
3004;SDS011;1512;51.486;6.610;2023-03-07T16:11:28;2.53;;;2.33;;
3004;SDS011;1512;51.486;6.610;2023-03-07T16:15:38;2.43;;;2.23;;
3004;SDS011;1512;51.486;6.610;2023-03-07T16:19:47;3.53;;;3.00;;
3004;SDS011;1512;51.486;6.610;2023-03-07T16:23:55;2.50;;;2.30;;
3004;SDS011;1512;51.486;6.610;2023-03-07T16:28:04;3.00;;;2.53;;
3004;SDS011;1512;51.486;6.610;2023-03-07T16:32:14;2.60;;;2.20;;
3004;SDS011;1512;51.486;6.610;2023-03-07T16:36:24;2.07;;;1.87;;
3004;SDS011;1512;51.486;6.610;2023-03-07T16:40:33;2.23;;;2.03;;
3004;SDS011;1512;51.486;6.610;2023-03-07T16:44:45;3.90;;;2.73;;
3004;SDS011;1512;51.486;6.610;2023-03-07T16:48:55;5.83;;;2.77;;
3004;SDS011;1512;51.486;6.610;2023-03-07T16:53:03;5.10;;;2.50;;
3004;SDS011;1512;51.486;6.610;2023-03-07T16:57:13;2.87;;;2.67;;
3004;SDS011;1512;51.486;6.610;2023-03-07T17:01:23;3.93;;;2.50;;
3004;SDS011;1512;51.486;6.610;2023-03-07T17:09:59;3.47;;;2.77;;
3004;SDS011;1512;51.486;6.610;2023-03-07T17:14:08;5.50;;;3.70;;
3004;SDS011;1512;51.486;6.610;2023-03-07T17:18:17;4.57;;;4.13;;
3004;SDS011;1512;51.486;6.610;2023-03-07T17:22:28;4.20;;;3.80;;
3004;SDS011;1512;51.486;6.610;2023-03-07T17:26:37;5.00;;;3.50;;
3004;SDS011;1512;51.486;6.610;2023-03-07T17:30:47;4.87;;;3.30;;
3004;SDS011;1512;51.486;6.610;2023-03-07T17:34:56;5.77;;;3.93;;
3004;SDS011;1512;51.486;6.610;2023-03-07T17:39:05;6.60;;;4.70;;
3004;SDS011;1512;51.486;6.610;2023-03-07T17:43:15;6.00;;;5.37;;
3004;SDS011;1512;51.486;6.610;2023-03-07T17:47:24;7.00;;;6.30;;
3004;SDS011;1512;51.486;6.610;2023-03-07T17:51:33;9.03;;;6.90;;
3004;SDS011;1512;51.486;6.610;2023-03-07T17:55:41;9.87;;;6.40;;
3004;SDS011;1512;51.486;6.610;2023-03-07T17:59:53;6.40;;;5.67;;
3004;SDS011;1512;51.486;6.610;2023-03-07T18:04:22;5.70;;;4.50;;
3004;SDS011;1512;51.486;6.610;2023-03-07T18:08:31;6.57;;;5.47;;
3004;SDS011;1512;51.486;6.610;2023-03-07T18:12:40;4.30;;;3.90;;
3004;SDS011;1512;51.486;6.610;2023-03-07T18:16:48;3.73;;;3.40;;
3004;SDS011;1512;51.486;6.610;2023-03-07T18:20:58;4.97;;;4.37;;
3004;SDS011;1512;51.486;6.610;2023-03-07T18:25:11;5.17;;;4.20;;
3004;SDS011;1512;51.486;6.610;2023-03-07T18:29:21;3.83;;;3.50;;
3004;SDS011;1512;51.486;6.610;2023-03-07T18:33:30;5.40;;;4.87;;
3004;SDS011;1512;51.486;6.610;2023-03-07T18:37:40;4.37;;;4.00;;
3004;SDS011;1512;51.486;6.610;2023-03-07T18:41:50;6.17;;;4.37;;
3004;SDS011;1512;51.486;6.610;2023-03-07T18:45:59;4.23;;;3.77;;
3004;SDS011;1512;51.486;6.610;2023-03-07T18:50:11;5.40;;;4.27;;
3004;SDS011;1512;51.486;6.610;2023-03-07T18:54:19;4.63;;;3.70;;
3004;SDS011;1512;51.486;6.610;2023-03-07T18:58:28;5.77;;;4.87;;
3004;SDS011;1512;51.486;6.610;2023-03-07T19:02:37;4.03;;;3.63;;
3004;SDS011;1512;51.486;6.610;2023-03-07T19:06:46;4.40;;;3.63;;
3004;SDS011;1512;51.486;6.610;2023-03-07T19:10:54;4.70;;;4.03;;
3004;SDS011;1512;51.486;6.610;2023-03-07T19:15:03;5.03;;;3.43;;
3004;SDS011;1512;51.486;6.610;2023-03-07T19:19:12;6.10;;;4.23;;
3004;SDS011;1512;51.486;6.610;2023-03-07T19:23:21;4.33;;;3.90;;
3004;SDS011;1512;51.486;6.610;2023-03-07T19:27:30;5.17;;;4.70;;
3004;SDS011;1512;51.486;6.610;2023-03-07T19:36:08;8.63;;;5.40;;
3004;SDS011;1512;51.486;6.610;2023-03-07T19:40:18;4.97;;;4.23;;
3004;SDS011;1512;51.486;6.610;2023-03-07T19:44:29;5.87;;;4.83;;
3004;SDS011;1512;51.486;6.610;2023-03-07T19:48:38;5.10;;;4.33;;
3004;SDS011;1512;51.486;6.610;2023-03-07T19:52:47;5.50;;;4.10;;
3004;SDS011;1512;51.486;6.610;2023-03-07T19:56:56;5.20;;;4.50;;
3004;SDS011;1512;51.486;6.610;2023-03-07T20:01:06;5.77;;;5.10;;
3004;SDS011;1512;51.486;6.610;2023-03-07T20:05:17;4.80;;;4.30;;
3004;SDS011;1512;51.486;6.610;2023-03-07T20:09:27;7.63;;;5.37;;
3004;SDS011;1512;51.486;6.610;2023-03-07T20:13:35;9.40;;;4.50;;
3004;SDS011;1512;51.486;6.610;2023-03-07T20:17:44;6.67;;;3.83;;
3004;SDS011;1512;51.486;6.610;2023-03-07T20:21:53;5.00;;;4.47;;
3004;SDS011;1512;51.486;6.610;2023-03-07T20:26:06;5.87;;;5.00;;
3004;SDS011;1512;51.486;6.610;2023-03-07T20:30:33;4.73;;;4.23;;
3004;SDS011;1512;51.486;6.610;2023-03-07T20:34:42;4.50;;;3.80;;
3004;SDS011;1512;51.486;6.610;2023-03-07T20:38:52;5.60;;;4.03;;
3004;SDS011;1512;51.486;6.610;2023-03-07T20:43:02;7.80;;;4.00;;
3004;SDS011;1512;51.486;6.610;2023-03-07T20:47:11;9.00;;;4.90;;
3004;SDS011;1512;51.486;6.610;2023-03-07T20:51:20;10.50;;;5.50;;
3004;SDS011;1512;51.486;6.610;2023-03-07T20:55:31;6.30;;;4.23;;
3004;SDS011;1512;51.486;6.610;2023-03-07T20:59:39;7.63;;;4.47;;
3004;SDS011;1512;51.486;6.610;2023-03-07T21:03:48;6.57;;;5.20;;
3004;SDS011;1512;51.486;6.610;2023-03-07T21:07:57;11.00;;;6.50;;
3004;SDS011;1512;51.486;6.610;2023-03-07T21:16:34;12.57;;;5.87;;
3004;SDS011;1512;51.486;6.610;2023-03-07T21:20:43;5.90;;;4.30;;
3004;SDS011;1512;51.486;6.610;2023-03-07T21:24:51;5.80;;;5.20;;
3004;SDS011;1512;51.486;6.610;2023-03-07T21:29:00;14.87;;;5.93;;
3004;SDS011;1512;51.486;6.610;2023-03-07T21:33:09;7.90;;;5.60;;
3004;SDS011;1512;51.486;6.610;2023-03-07T21:37:18;5.67;;;4.17;;
3004;SDS011;1512;51.486;6.610;2023-03-07T21:41:26;5.00;;;4.50;;
3004;SDS011;1512;51.486;6.610;2023-03-07T21:45:35;8.70;;;6.00;;
3004;SDS011;1512;51.486;6.610;2023-03-07T21:49:44;6.37;;;5.70;;
3004;SDS011;1512;51.486;6.610;2023-03-07T21:53:53;6.70;;;5.13;;
3004;SDS011;1512;51.486;6.610;2023-03-07T21:58:01;9.73;;;6.93;;
3004;SDS011;1512;51.486;6.610;2023-03-07T22:02:11;9.70;;;4.70;;
3004;SDS011;1512;51.486;6.610;2023-03-07T22:06:20;6.70;;;5.27;;
3004;SDS011;1512;51.486;6.610;2023-03-07T22:10:29;9.33;;;6.03;;
3004;SDS011;1512;51.486;6.610;2023-03-07T22:19:06;8.37;;;5.60;;
3004;SDS011;1512;51.486;6.610;2023-03-07T22:23:15;8.70;;;5.40;;
3004;SDS011;1512;51.486;6.610;2023-03-07T22:27:24;13.00;;;7.27;;
3004;SDS011;1512;51.486;6.610;2023-03-07T22:31:32;9.90;;;6.70;;
3004;SDS011;1512;51.486;6.610;2023-03-07T22:35:41;9.20;;;6.90;;
3004;SDS011;1512;51.486;6.610;2023-03-07T22:39:50;6.90;;;6.10;;
3004;SDS011;1512;51.486;6.610;2023-03-07T22:43:58;13.07;;;8.27;;
3004;SDS011;1512;51.486;6.610;2023-03-07T22:48:07;11.53;;;7.03;;
3004;SDS011;1512;51.486;6.610;2023-03-07T22:52:16;17.20;;;7.40;;
3004;SDS011;1512;51.486;6.610;2023-03-07T22:56:25;9.47;;;6.13;;
3004;SDS011;1512;51.486;6.610;2023-03-07T23:00:34;13.87;;;7.53;;
3004;SDS011;1512;51.486;6.610;2023-03-07T23:04:44;13.80;;;7.13;;
3004;SDS011;1512;51.486;6.610;2023-03-07T23:08:53;9.93;;;6.50;;
3004;SDS011;1512;51.486;6.610;2023-03-07T23:13:02;8.63;;;6.20;;
3004;SDS011;1512;51.486;6.610;2023-03-07T23:17:11;7.60;;;5.80;;
3004;SDS011;1512;51.486;6.610;2023-03-07T23:21:20;7.83;;;5.47;;
3004;SDS011;1512;51.486;6.610;2023-03-07T23:25:31;11.10;;;7.00;;
3004;SDS011;1512;51.486;6.610;2023-03-07T23:29:40;7.10;;;5.60;;
3004;SDS011;1512;51.486;6.610;2023-03-07T23:33:48;7.83;;;5.63;;
3004;SDS011;1512;51.486;6.610;2023-03-07T23:37:59;10.27;;;6.00;;
3004;SDS011;1512;51.486;6.610;2023-03-07T23:42:11;11.00;;;6.90;;
3004;SDS011;1512;51.486;6.610;2023-03-07T23:46:19;13.37;;;6.97;;
3004;SDS011;1512;51.486;6.610;2023-03-07T23:50:28;8.67;;;6.70;;
3004;SDS011;1512;51.486;6.610;2023-03-07T23:54:37;9.00;;;6.83;;
3004;SDS011;1512;51.486;6.610;2023-03-07T23:58:48;8.80;;;6.30;;
